createdAt,value
2018-03-27T00:00:09.110Z,74.75
2018-03-27T00:01:09.089Z,75.04
2018-03-27T00:02:09.056Z,74.85
2018-03-27T00:03:09.040Z,74.18
2018-03-27T00:04:09.013Z,74.56
2018-03-27T00:05:08.963Z,74.18
2018-03-27T00:06:08.998Z,73.10
2018-03-27T00:07:08.924Z,73.14
2018-03-27T00:08:08.868Z,72.09
2018-03-27T00:09:08.833Z,72.09
2018-03-27T00:10:08.899Z,71.71
2018-03-27T00:11:08.772Z,72.19
2018-03-27T00:12:08.740Z,72.09
2018-03-27T00:13:08.717Z,71.71
2018-03-27T00:14:08.703Z,71.43
2018-03-27T00:15:08.652Z,70.92
2018-03-27T00:16:08.635Z,70.29
2018-03-27T00:17:08.600Z,71.04
2018-03-27T00:18:08.557Z,71.71
2018-03-27T00:19:08.557Z,70.06
2018-03-27T00:20:08.504Z,69.78
2018-03-27T00:21:08.467Z,69.30
2018-03-27T00:22:08.448Z,69.02
2018-03-27T00:23:08.410Z,68.64
2018-03-27T00:24:08.369Z,69.21
2018-03-27T00:25:08.365Z,68.92
2018-03-27T00:26:08.317Z,68.35
2018-03-27T00:27:08.284Z,68.44
2018-03-27T00:28:08.275Z,69.21
2018-03-27T00:29:08.222Z,68.35
2018-03-27T00:30:08.189Z,68.44
2018-03-27T00:31:08.178Z,69.11
2018-03-27T00:32:08.134Z,68.64
2018-03-27T00:33:08.104Z,69.40
2018-03-27T00:34:08.084Z,68.35
2018-03-27T00:35:08.042Z,69.11
2018-03-27T00:36:08.067Z,69.02
2018-03-27T00:37:07.990Z,68.73
2018-03-27T00:38:08.052Z,68.54
2018-03-27T00:39:07.909Z,68.35
2018-03-27T00:40:07.900Z,69.11
2018-03-27T00:41:07.915Z,68.26
2018-03-27T00:42:07.821Z,67.88
2018-03-27T00:43:07.799Z,67.59
2018-03-27T00:44:07.758Z,67.21
2018-03-27T00:45:07.730Z,66.46
2018-03-27T00:46:07.720Z,66.64
2018-03-27T00:47:07.665Z,66.74
2018-03-27T00:48:07.641Z,66.74
2018-03-27T00:49:07.619Z,66.93
2018-03-27T00:50:07.568Z,67.31
2018-03-27T00:51:07.548Z,67.02
2018-03-27T00:52:07.525Z,67.12
2018-03-27T00:53:07.473Z,67.59
2018-03-27T00:54:07.452Z,66.64
2018-03-27T00:55:07.429Z,66.64
2018-03-27T00:56:07.397Z,66.93
2018-03-27T00:57:07.370Z,67.50
2018-03-27T00:58:07.340Z,67.79
2018-03-27T00:59:07.303Z,67.31
2018-03-27T01:00:07.268Z,67.50
2018-03-27T01:01:07.241Z,67.02
2018-03-27T01:02:07.203Z,66.36
2018-03-27T01:03:07.175Z,65.79
2018-03-27T01:04:07.172Z,65.41
2018-03-27T01:05:07.205Z,65.12
2018-03-27T01:06:07.075Z,66.17
2018-03-27T01:07:07.050Z,65.60
2018-03-27T01:08:07.014Z,65.88
2018-03-27T01:09:06.982Z,65.98
2018-03-27T01:10:06.970Z,66.08
2018-03-27T01:11:06.922Z,65.69
2018-03-27T01:12:06.891Z,66.17
2018-03-27T01:13:06.867Z,65.79
2018-03-27T01:14:06.827Z,66.17
2018-03-27T01:15:06.812Z,65.98
2018-03-27T01:16:06.773Z,65.60
2018-03-27T01:17:06.733Z,64.94
2018-03-27T01:18:06.707Z,65.12
2018-03-27T01:19:06.745Z,65.41
2018-03-27T01:20:06.643Z,65.41
2018-03-27T01:21:06.606Z,65.50
2018-03-27T01:22:06.676Z,64.94
2018-03-27T01:23:06.545Z,64.27
2018-03-27T01:24:06.524Z,65.00
2018-03-27T01:25:06.501Z,64.71
2018-03-27T01:26:06.460Z,64.81
2018-03-27T01:27:06.417Z,64.75
2018-03-27T01:28:06.399Z,64.37
2018-03-27T01:29:06.382Z,64.24
2018-03-27T01:30:06.333Z,63.95
2018-03-27T01:31:06.313Z,63.67
2018-03-27T01:32:06.270Z,64.05
2018-03-27T01:33:06.252Z,63.29
2018-03-27T01:34:06.239Z,63.29
2018-03-27T01:35:06.221Z,63.20
2018-03-27T01:36:06.195Z,63.29
2018-03-27T01:37:06.122Z,63.29
2018-03-27T01:38:06.088Z,63.29
2018-03-27T01:39:06.043Z,63.48
2018-03-27T01:40:06.032Z,63.20
2018-03-27T01:41:05.998Z,63.01
2018-03-27T01:42:05.956Z,62.34
2018-03-27T01:43:05.934Z,61.68
2018-03-27T01:44:05.890Z,61.58
2018-03-27T01:45:05.856Z,62.05
2018-03-27T01:46:05.837Z,61.96
2018-03-27T01:47:05.804Z,61.96
2018-03-27T01:48:05.928Z,61.68
2018-03-27T01:49:05.747Z,61.87
2018-03-27T01:50:05.734Z,61.68
2018-03-27T01:51:05.668Z,61.58
2018-03-27T01:52:05.674Z,61.30
2018-03-27T01:53:05.778Z,61.30
2018-03-27T01:54:05.588Z,61.39
2018-03-27T01:55:05.566Z,61.58
2018-03-27T01:56:05.537Z,61.58
2018-03-27T01:57:05.492Z,62.15
2018-03-27T01:58:05.469Z,61.68
2018-03-27T01:59:05.586Z,61.68
2018-03-27T02:00:05.388Z,62.05
2018-03-27T02:01:05.378Z,61.68
2018-03-27T02:02:05.328Z,62.05
2018-03-27T02:03:05.295Z,61.96
2018-03-27T02:04:05.284Z,61.77
2018-03-27T02:05:05.237Z,61.96
2018-03-27T02:06:05.263Z,61.49
2018-03-27T02:07:05.189Z,61.20
2018-03-27T02:08:05.146Z,61.49
2018-03-27T02:09:05.268Z,61.58
2018-03-27T02:10:05.153Z,61.77
2018-03-27T02:11:05.045Z,61.20
2018-03-27T02:12:05.023Z,61.01
2018-03-27T02:13:04.999Z,61.30
2018-03-27T02:14:04.957Z,61.11
2018-03-27T02:15:04.923Z,60.92
2018-03-27T02:16:04.906Z,60.16
2018-03-27T02:17:04.854Z,60.35
2018-03-27T02:18:04.823Z,60.63
2018-03-27T02:19:04.817Z,60.16
2018-03-27T02:20:04.765Z,60.53
2018-03-27T02:21:04.731Z,60.63
2018-03-27T02:22:04.727Z,60.06
2018-03-27T02:23:04.665Z,59.40
2018-03-27T02:24:04.648Z,59.59
2018-03-27T02:25:04.626Z,59.97
2018-03-27T02:26:04.585Z,59.49
2018-03-27T02:27:04.546Z,59.59
2018-03-27T02:28:04.539Z,59.97
2018-03-27T02:29:04.484Z,59.97
2018-03-27T02:30:04.498Z,60.73
2018-03-27T02:31:04.434Z,60.25
2018-03-27T02:32:04.383Z,60.35
2018-03-27T02:33:04.358Z,60.16
2018-03-27T02:34:04.348Z,60.03
2018-03-27T02:35:04.299Z,60.06
2018-03-27T02:36:04.260Z,59.78
2018-03-27T02:37:04.241Z,60.03
2018-03-27T02:38:04.191Z,60.22
2018-03-27T02:39:04.166Z,59.27
2018-03-27T02:40:04.154Z,59.97
2018-03-27T02:41:04.106Z,59.46
2018-03-27T02:42:04.113Z,60.53
2018-03-27T02:43:04.119Z,60.31
2018-03-27T02:44:04.015Z,60.22
2018-03-27T02:45:03.985Z,60.03
2018-03-27T02:46:03.974Z,59.37
2018-03-27T02:47:03.916Z,60.13
2018-03-27T02:48:03.973Z,59.75
2018-03-27T02:49:03.865Z,59.27
2018-03-27T02:50:03.813Z,58.80
2018-03-27T02:51:03.820Z,58.70
2018-03-27T02:52:03.767Z,59.08
2018-03-27T02:53:03.723Z,58.99
2018-03-27T02:54:03.749Z,58.89
2018-03-27T02:55:03.664Z,58.80
2018-03-27T02:56:03.630Z,59.18
2018-03-27T02:57:03.593Z,58.51
2018-03-27T02:58:03.585Z,58.70
2018-03-27T02:59:03.532Z,58.99
2018-03-27T03:00:03.503Z,58.99
2018-03-27T03:01:03.472Z,58.61
2018-03-27T03:02:03.447Z,58.14
2018-03-27T03:03:03.408Z,58.51
2018-03-27T03:04:03.389Z,58.33
2018-03-27T03:05:03.338Z,58.14
2018-03-27T03:06:03.309Z,58.33
2018-03-27T03:07:03.292Z,58.42
2018-03-27T03:08:03.260Z,58.14
2018-03-27T03:09:03.219Z,58.61
2018-03-27T03:10:03.214Z,58.33
2018-03-27T03:11:03.158Z,58.51
2018-03-27T03:12:03.121Z,58.42
2018-03-27T03:13:03.140Z,58.23
2018-03-27T03:14:03.057Z,58.23
2018-03-27T03:15:03.032Z,58.14
2018-03-27T03:16:03.015Z,58.14
2018-03-27T03:17:02.963Z,58.14
2018-03-27T03:18:02.939Z,58.61
2018-03-27T03:19:02.905Z,58.23
2018-03-27T03:20:02.862Z,58.23
2018-03-27T03:21:02.838Z,58.23
2018-03-27T03:22:02.919Z,58.42
2018-03-27T03:23:02.776Z,58.89
2018-03-27T03:24:02.737Z,58.04
2018-03-27T03:25:02.738Z,58.04
2018-03-27T03:26:02.670Z,58.61
2018-03-27T03:27:02.650Z,58.61
2018-03-27T03:28:02.617Z,58.51
2018-03-27T03:29:02.579Z,58.42
2018-03-27T03:30:02.560Z,58.23
2018-03-27T03:31:02.525Z,58.33
2018-03-27T03:32:02.483Z,58.23
2018-03-27T03:33:02.453Z,58.42
2018-03-27T03:34:02.461Z,58.14
2018-03-27T03:35:02.390Z,58.42
2018-03-27T03:36:02.362Z,58.14
2018-03-27T03:37:02.362Z,58.14
2018-03-27T03:38:02.300Z,58.33
2018-03-27T03:39:02.256Z,58.14
2018-03-27T03:40:02.228Z,58.04
2018-03-27T03:41:02.195Z,58.33
2018-03-27T03:42:02.169Z,58.14
2018-03-27T03:43:02.128Z,58.42
2018-03-27T03:44:02.112Z,58.42
2018-03-27T03:45:02.072Z,58.42
2018-03-27T03:46:02.097Z,57.95
2018-03-27T03:47:02.015Z,57.73
2018-03-27T03:48:01.973Z,57.16
2018-03-27T03:49:02.016Z,56.87
2018-03-27T03:50:01.912Z,57.54
2018-03-27T03:51:01.894Z,57.76
2018-03-27T03:52:01.870Z,58.29
2018-03-27T03:53:01.863Z,57.73
2018-03-27T03:54:01.783Z,57.16
2018-03-27T03:55:01.756Z,57.06
2018-03-27T03:56:01.725Z,56.78
2018-03-27T03:57:01.693Z,57.06
2018-03-27T03:58:01.722Z,57.73
2018-03-27T03:59:01.637Z,58.23
2018-03-27T04:00:01.596Z,58.14
2018-03-27T04:01:01.585Z,57.85
2018-03-27T04:02:01.523Z,57.85
2018-03-27T04:03:01.491Z,58.01
2018-03-27T04:04:01.457Z,58.11
2018-03-27T04:05:01.438Z,57.92
2018-03-27T04:06:01.409Z,57.54
2018-03-27T04:07:01.367Z,57.92
2018-03-27T04:08:01.352Z,57.38
2018-03-27T04:09:01.313Z,57.73
2018-03-27T04:10:01.273Z,58.11
2018-03-27T04:11:01.330Z,58.20
2018-03-27T04:12:01.213Z,58.11
2018-03-27T04:13:01.182Z,58.29
2018-03-27T04:14:01.146Z,58.29
2018-03-27T04:15:01.111Z,57.54
2018-03-27T04:16:01.104Z,57.54
2018-03-27T04:17:01.045Z,58.20
2018-03-27T04:18:01.015Z,57.16
2018-03-27T04:19:00.985Z,57.54
2018-03-27T04:20:00.947Z,58.11
2018-03-27T04:21:00.914Z,58.96
2018-03-27T04:22:00.883Z,59.25
2018-03-27T04:23:00.849Z,58.39
2018-03-27T04:24:00.826Z,58.58
2018-03-27T04:25:00.820Z,58.39
2018-03-27T04:26:00.756Z,57.82
2018-03-27T04:27:00.733Z,58.48
2018-03-27T04:28:00.702Z,58.01
2018-03-27T04:29:00.673Z,58.20
2018-03-27T04:30:00.627Z,58.77
2018-03-27T04:31:00.601Z,58.29
2018-03-27T04:32:00.568Z,59.15
2018-03-27T04:33:00.527Z,59.91
2018-03-27T04:34:00.500Z,60.00
2018-03-27T04:35:00.466Z,58.58
2018-03-27T04:36:00.442Z,58.48
2018-03-27T04:37:00.407Z,58.96
2018-03-27T04:38:00.371Z,59.05
2018-03-27T04:39:00.341Z,58.45
2018-03-27T04:40:00.386Z,58.01
2018-03-27T04:41:00.274Z,58.36
2018-03-27T04:42:00.244Z,58.17
2018-03-27T04:43:00.216Z,58.07
2018-03-27T04:44:00.179Z,58.07
2018-03-27T04:45:00.183Z,58.36
2018-03-27T04:46:00.121Z,58.17
2018-03-27T04:47:00.080Z,57.42
2018-03-27T04:48:00.043Z,57.32
2018-03-27T04:49:00.021Z,57.04
2018-03-27T04:50:00.066Z,57.51
2018-03-27T04:50:59.950Z,57.60
2018-03-27T04:51:59.925Z,57.60
2018-03-27T04:52:59.887Z,57.42
2018-03-27T04:53:59.858Z,57.23
2018-03-27T04:54:59.822Z,58.01
2018-03-27T04:55:59.788Z,57.89
2018-03-27T04:56:59.755Z,58.26
2018-03-27T04:57:59.874Z,58.20
2018-03-27T04:58:59.698Z,58.07
2018-03-27T04:59:59.661Z,58.26
2018-03-27T05:00:59.626Z,57.82
2018-03-27T05:01:59.597Z,58.45
2018-03-27T05:02:59.563Z,58.65
2018-03-27T05:03:59.537Z,58.26
2018-03-27T05:04:59.502Z,58.07
2018-03-27T05:05:59.475Z,58.07
2018-03-27T05:06:59.437Z,57.35
2018-03-27T05:07:59.402Z,57.54
2018-03-27T05:08:59.369Z,57.54
2018-03-27T05:09:59.336Z,58.39
2018-03-27T05:10:59.319Z,58.11
2018-03-27T05:11:59.311Z,58.96
2018-03-27T05:12:59.238Z,58.58
2018-03-27T05:13:59.208Z,58.96
2018-03-27T05:14:59.203Z,59.25
2018-03-27T05:15:59.157Z,58.86
2018-03-27T05:16:59.169Z,59.34
2018-03-27T05:17:59.079Z,59.44
2018-03-27T05:18:59.059Z,59.53
2018-03-27T05:19:59.092Z,59.81
2018-03-27T05:20:58.983Z,59.44
2018-03-27T05:21:58.955Z,59.25
2018-03-27T05:22:58.916Z,59.53
2018-03-27T05:23:58.888Z,59.34
2018-03-27T05:24:58.853Z,59.91
2018-03-27T05:25:58.848Z,59.53
2018-03-27T05:26:58.818Z,59.05
2018-03-27T05:27:58.750Z,58.29
2018-03-27T05:28:58.719Z,58.39
2018-03-27T05:29:58.719Z,58.11
2018-03-27T05:30:58.665Z,58.58
2018-03-27T05:31:58.620Z,58.58
2018-03-27T05:32:58.591Z,58.86
2018-03-27T05:33:58.635Z,59.81
2018-03-27T05:34:58.530Z,59.34
2018-03-27T05:35:58.639Z,59.44
2018-03-27T05:36:58.463Z,59.25
2018-03-27T05:37:58.440Z,59.25
2018-03-27T05:38:58.408Z,59.44
2018-03-27T05:39:58.369Z,59.44
2018-03-27T05:40:58.333Z,59.05
2018-03-27T05:41:58.313Z,59.91
2018-03-27T05:42:58.330Z,59.72
2018-03-27T05:43:58.237Z,59.53
2018-03-27T05:44:58.244Z,59.53
2018-03-27T05:45:58.176Z,59.25
2018-03-27T05:46:58.283Z,59.53
2018-03-27T05:47:58.112Z,59.63
2018-03-27T05:48:58.071Z,60.76
2018-03-27T05:49:58.044Z,60.57
2018-03-27T05:50:58.011Z,60.10
2018-03-27T05:51:57.978Z,60.38
2018-03-27T05:52:57.948Z,60.47
2018-03-27T05:53:57.912Z,60.60
2018-03-27T05:54:57.892Z,60.79
2018-03-27T05:55:57.938Z,61.36
2018-03-27T05:56:57.822Z,61.93
2018-03-27T05:57:57.792Z,62.02
2018-03-27T05:58:57.753Z,61.93
2018-03-27T05:59:57.721Z,61.65
2018-03-27T06:00:57.698Z,62.12
2018-03-27T06:01:57.661Z,62.12
2018-03-27T06:02:57.629Z,61.08
2018-03-27T06:03:57.596Z,61.17
2018-03-27T06:04:57.573Z,62.21
2018-03-27T06:05:57.555Z,62.12
2018-03-27T06:06:57.506Z,62.02
2018-03-27T06:07:57.476Z,61.46
2018-03-27T06:08:57.432Z,60.79
2018-03-27T06:09:57.407Z,60.98
2018-03-27T06:10:57.372Z,61.74
2018-03-27T06:11:57.340Z,61.08
2018-03-27T06:12:57.317Z,61.96
2018-03-27T06:13:57.306Z,61.58
2018-03-27T06:14:57.302Z,62.72
2018-03-27T06:15:57.220Z,63.10
2018-03-27T06:16:57.183Z,62.72
2018-03-27T06:17:57.156Z,62.72
2018-03-27T06:18:57.124Z,62.24
2018-03-27T06:19:57.339Z,62.82
2018-03-27T06:20:57.809Z,61.96
2018-03-27T06:21:57.354Z,61.96
2018-03-27T06:22:59.326Z,62.62
2018-03-27T06:23:58.464Z,63.39
2018-03-27T06:24:57.027Z,63.57
2018-03-27T06:25:56.896Z,63.29
2018-03-27T06:26:56.863Z,62.72
2018-03-27T06:27:57.006Z,63.89
2018-03-27T06:28:56.863Z,64.46
2018-03-27T06:29:56.813Z,64.27
2018-03-27T06:30:56.907Z,65.22
2018-03-27T06:31:56.780Z,65.50
2018-03-27T06:32:56.738Z,64.75
2018-03-27T06:33:56.652Z,65.60
2018-03-27T06:34:56.712Z,66.08
2018-03-27T06:35:56.686Z,66.08
2018-03-27T06:36:56.579Z,65.88
2018-03-27T06:37:56.539Z,66.17
2018-03-27T06:38:56.495Z,66.08
2018-03-27T06:39:56.462Z,66.17
2018-03-27T06:40:56.427Z,66.27
2018-03-27T06:41:56.498Z,65.98
2018-03-27T06:42:56.380Z,67.12
2018-03-27T06:43:56.755Z,66.93
2018-03-27T06:44:56.299Z,66.55
2018-03-27T06:45:56.274Z,65.98
2018-03-27T06:47:00.835Z,66.27
2018-03-27T06:49:24.784Z,66.55
2018-03-27T06:50:23.479Z,66.87
2018-03-27T06:52:26.469Z,67.31
2018-03-27T06:53:26.321Z,67.53
2018-03-27T06:55:28.701Z,67.53
2018-03-27T06:56:29.276Z,67.31
2018-03-27T06:58:30.923Z,68.35
2018-03-27T06:59:31.782Z,68.73
2018-03-27T07:01:34.319Z,68.54
2018-03-27T07:02:34.254Z,68.83
2018-03-27T07:04:40.310Z,69.02
2018-03-27T07:05:39.871Z,69.24
2018-03-27T07:07:44.316Z,69.15
2018-03-27T07:08:44.406Z,69.30
2018-03-27T07:10:47.739Z,69.24
2018-03-27T07:11:47.019Z,69.43
2018-03-27T07:13:55.028Z,69.43
2018-03-27T07:14:55.033Z,70.00
2018-03-27T07:16:57.774Z,70.76
2018-03-27T07:17:57.813Z,70.57
2018-03-27T07:20:03.562Z,71.62
2018-03-27T07:21:04.668Z,72.19
2018-03-27T07:23:07.997Z,71.43
2018-03-27T07:24:07.530Z,71.81
2018-03-27T07:26:12.897Z,72.38
2018-03-27T07:27:12.325Z,72.19
2018-03-27T07:29:20.948Z,73.90
2018-03-27T07:30:21.644Z,73.61
2018-03-27T07:32:24.494Z,74.66
2018-03-27T07:33:24.444Z,74.94
2018-03-27T07:35:29.648Z,75.79
2018-03-27T07:36:28.808Z,75.89
2018-03-27T07:38:34.114Z,76.78
2018-03-27T07:39:33.130Z,76.21
2018-03-27T07:41:39.117Z,76.12
2018-03-27T07:42:39.193Z,76.97
2018-03-27T07:43:38.908Z,76.59
2018-03-27T07:44:38.832Z,77.92
2018-03-27T07:45:38.647Z,76.50
2018-03-27T07:46:38.538Z,78.11
2018-03-27T07:47:38.539Z,78.11
2018-03-27T07:48:38.475Z,79.73
2018-03-27T07:49:38.650Z,78.69
2018-03-27T07:50:38.413Z,78.88
2018-03-27T07:51:38.388Z,79.54
2018-03-27T07:52:38.355Z,80.87
2018-03-27T07:53:38.322Z,79.83
2018-03-27T07:54:38.287Z,80.68
2018-03-27T07:55:38.270Z,80.58
2018-03-27T07:56:38.225Z,81.25
2018-03-27T07:57:38.195Z,81.16
2018-03-27T07:58:38.201Z,81.25
2018-03-27T07:59:38.139Z,81.06
2018-03-27T08:00:38.108Z,81.92
2018-03-27T08:01:38.079Z,81.06
2018-03-27T08:02:38.072Z,82.05
2018-03-27T08:03:38.035Z,83.25
2018-03-27T08:04:37.995Z,81.92
2018-03-27T08:05:37.958Z,83.76
2018-03-27T08:06:37.919Z,81.86
2018-03-27T08:07:39.539Z,82.39
2018-03-27T08:08:37.860Z,83.29
2018-03-27T08:09:37.831Z,80.82
2018-03-27T08:10:37.800Z,82.58
2018-03-27T08:11:37.774Z,83.19
2018-03-27T08:12:37.753Z,82.81
2018-03-27T08:13:37.722Z,85.86
2018-03-27T08:14:37.687Z,84.05
2018-03-27T08:15:37.663Z,83.39
2018-03-27T08:16:37.622Z,84.24
2018-03-27T08:17:37.596Z,83.86
2018-03-27T08:18:37.561Z,84.24
2018-03-27T08:19:37.539Z,83.39
2018-03-27T08:20:37.499Z,84.05
2018-03-27T08:21:37.474Z,84.33
2018-03-27T08:22:37.436Z,85.38
2018-03-27T08:23:37.410Z,84.81
2018-03-27T08:24:37.379Z,84.43
2018-03-27T08:25:37.641Z,84.05
2018-03-27T08:26:37.328Z,84.43
2018-03-27T08:27:37.287Z,84.91
2018-03-27T08:28:37.257Z,84.47
2018-03-27T08:29:37.240Z,84.19
2018-03-27T08:30:37.202Z,85.04
2018-03-27T08:31:37.164Z,84.95
2018-03-27T08:32:37.131Z,83.90
2018-03-27T08:33:37.100Z,83.81
2018-03-27T08:34:37.080Z,84.66
2018-03-27T08:35:37.212Z,84.85
2018-03-27T08:36:37.022Z,84.38
2018-03-27T08:37:36.981Z,85.33
2018-03-27T08:38:37.138Z,84.56
2018-03-27T08:39:36.928Z,83.62
2018-03-27T08:40:38.528Z,84.38
2018-03-27T08:41:36.866Z,84.80
2018-03-27T08:42:36.841Z,85.66
2018-03-27T08:43:36.803Z,84.99
2018-03-27T08:44:36.780Z,84.99
2018-03-27T08:45:36.752Z,85.85
2018-03-27T08:46:36.712Z,85.42
2018-03-27T08:47:36.768Z,86.13
2018-03-27T08:48:36.666Z,85.85
2018-03-27T08:49:36.630Z,86.04
2018-03-27T08:50:36.648Z,87.27
2018-03-27T08:51:36.566Z,86.51
2018-03-27T08:52:38.524Z,86.32
2018-03-27T08:53:36.510Z,85.66
2018-03-27T08:54:36.497Z,86.90
2018-03-27T08:55:37.674Z,85.75
2018-03-27T08:56:36.425Z,86.90
2018-03-27T08:57:36.396Z,86.27
2018-03-27T08:58:36.363Z,87.51
2018-03-27T08:59:36.337Z,86.75
2018-03-27T09:00:36.329Z,88.08
2018-03-27T09:01:36.289Z,88.08
2018-03-27T09:02:36.239Z,87.51
2018-03-27T09:03:36.211Z,88.84
2018-03-27T09:04:36.193Z,88.12
2018-03-27T09:05:36.155Z,88.70
2018-03-27T09:06:36.129Z,87.79
2018-03-27T09:07:38.032Z,86.94
2018-03-27T09:08:36.065Z,85.99
2018-03-27T09:09:36.032Z,85.64
2018-03-27T09:10:36.016Z,85.17
2018-03-27T09:11:35.988Z,85.46
2018-03-27T09:12:35.950Z,84.16
2018-03-27T09:13:35.942Z,83.88
2018-03-27T09:14:35.892Z,81.12
2018-03-27T09:15:35.867Z,79.68
2018-03-27T09:16:35.845Z,77.59
2018-03-27T09:17:35.808Z,75.20
2018-03-27T09:18:35.777Z,72.16
2018-03-27T09:19:35.831Z,73.49
2018-03-27T09:20:35.730Z,70.92
2018-03-27T09:21:35.754Z,69.77
2018-03-27T09:22:35.712Z,68.53
2018-03-27T09:23:35.635Z,68.44
2018-03-27T09:24:38.599Z,68.91
2018-03-27T09:25:35.586Z,68.66
2018-03-27T09:26:35.556Z,65.67
2018-03-27T09:27:35.527Z,63.86
2018-03-27T09:28:35.531Z,64.53
2018-03-27T09:29:35.487Z,63.10
2018-03-27T09:30:35.445Z,63.10
2018-03-27T09:31:35.445Z,63.20
2018-03-27T09:32:35.385Z,63.39
2018-03-27T09:33:35.361Z,64.15
2018-03-27T09:34:35.335Z,63.10
2018-03-27T09:35:35.306Z,63.86
2018-03-27T09:36:35.280Z,63.00
2018-03-27T09:37:35.285Z,61.10
2018-03-27T09:38:35.228Z,60.08
2018-03-27T09:39:35.243Z,60.55
2018-03-27T09:40:35.177Z,60.08
2018-03-27T09:41:35.172Z,60.08
2018-03-27T09:42:35.109Z,58.26
2018-03-27T09:43:35.092Z,58.20
2018-03-27T09:44:35.057Z,56.74
2018-03-27T09:45:35.041Z,55.88
2018-03-27T09:46:35.006Z,55.50
2018-03-27T09:47:34.972Z,56.55
2018-03-27T09:48:34.946Z,56.93
2018-03-27T09:49:34.922Z,55.88
2018-03-27T09:50:34.911Z,55.98
2018-03-27T09:51:34.873Z,55.72
2018-03-27T09:52:34.842Z,54.96
2018-03-27T09:53:34.816Z,54.77
2018-03-27T09:54:34.786Z,54.96
2018-03-27T09:55:34.761Z,54.19
2018-03-27T09:56:34.744Z,53.91
2018-03-27T09:57:34.707Z,54.19
2018-03-27T09:58:34.679Z,54.10
2018-03-27T09:59:34.653Z,53.43
2018-03-27T10:00:34.627Z,53.84
2018-03-27T10:01:34.602Z,53.45
2018-03-27T10:02:34.569Z,54.32
2018-03-27T10:03:34.551Z,52.76
2018-03-27T10:04:34.523Z,53.14
2018-03-27T10:05:34.490Z,53.43
2018-03-27T10:06:34.465Z,53.43
2018-03-27T10:07:34.436Z,53.53
2018-03-27T10:08:34.415Z,53.65
2018-03-27T10:09:34.383Z,51.74
2018-03-27T10:10:34.358Z,51.17
2018-03-27T10:11:34.335Z,50.38
2018-03-27T10:12:34.307Z,50.09
2018-03-27T10:13:34.279Z,50.18
2018-03-27T10:14:34.273Z,50.57
2018-03-27T10:15:34.225Z,50.28
2018-03-27T10:16:34.196Z,51.62
2018-03-27T10:17:34.171Z,51.68
2018-03-27T10:18:34.141Z,51.40
2018-03-27T10:19:34.115Z,50.45
2018-03-27T10:20:34.109Z,51.50
2018-03-27T10:21:34.068Z,51.59
2018-03-27T10:22:34.038Z,52.19
2018-03-27T10:23:34.036Z,52.73
2018-03-27T10:24:34.005Z,52.73
2018-03-27T10:25:35.547Z,52.73
2018-03-27T10:26:35.542Z,51.78
2018-03-27T10:27:33.911Z,51.88
2018-03-27T10:28:33.887Z,51.59
2018-03-27T10:29:33.935Z,52.45
2018-03-27T10:30:33.832Z,52.83
2018-03-27T10:31:33.792Z,52.83
2018-03-27T10:32:33.796Z,52.26
2018-03-27T10:33:33.740Z,52.92
2018-03-27T10:34:33.722Z,51.97
2018-03-27T10:35:33.693Z,52.90
2018-03-27T10:36:33.662Z,53.21
2018-03-27T10:37:33.643Z,53.31
2018-03-27T10:38:33.611Z,53.12
2018-03-27T10:39:33.582Z,53.41
2018-03-27T10:40:33.552Z,52.83
2018-03-27T10:41:33.522Z,52.92
2018-03-27T10:42:33.497Z,52.55
2018-03-27T10:43:33.471Z,52.07
2018-03-27T10:44:33.443Z,52.83
2018-03-27T10:45:33.425Z,51.88
2018-03-27T10:46:33.392Z,51.31
2018-03-27T10:47:33.370Z,51.68
2018-03-27T10:48:33.342Z,52.26
2018-03-27T10:49:33.315Z,52.55
2018-03-27T10:50:35.045Z,52.73
2018-03-27T10:51:33.254Z,51.68
2018-03-27T10:52:33.231Z,51.59
2018-03-27T10:53:33.201Z,51.81
2018-03-27T10:54:33.168Z,51.62
2018-03-27T10:55:33.141Z,51.14
2018-03-27T10:56:33.114Z,51.14
2018-03-27T10:57:33.090Z,51.23
2018-03-27T10:58:33.061Z,50.88
2018-03-27T10:59:33.035Z,50.12
2018-03-27T11:00:33.006Z,50.12
2018-03-27T11:01:32.990Z,49.66
2018-03-27T11:02:32.961Z,48.90
2018-03-27T11:03:32.932Z,49.28
2018-03-27T11:04:32.913Z,48.71
2018-03-27T11:05:32.876Z,48.99
2018-03-27T11:06:32.851Z,49.09
2018-03-27T11:07:32.827Z,48.71
2018-03-27T11:08:32.801Z,48.16
2018-03-27T11:09:32.807Z,47.49
2018-03-27T11:10:32.745Z,46.82
2018-03-27T11:11:32.752Z,46.34
2018-03-27T11:12:32.711Z,47.49
2018-03-27T11:13:32.670Z,47.56
2018-03-27T11:14:32.642Z,47.56
2018-03-27T11:15:32.629Z,48.04
2018-03-27T11:16:32.591Z,48.04
2018-03-27T11:17:35.570Z,47.66
2018-03-27T11:18:32.551Z,47.47
2018-03-27T11:19:32.522Z,46.61
2018-03-27T11:20:32.488Z,46.92
2018-03-27T11:21:32.472Z,46.92
2018-03-27T11:22:32.444Z,46.15
2018-03-27T11:23:32.416Z,45.79
2018-03-27T11:24:32.387Z,45.77
2018-03-27T11:25:32.363Z,45.87
2018-03-27T11:26:32.337Z,45.87
2018-03-27T11:27:32.313Z,45.89
2018-03-27T11:28:32.282Z,45.79
2018-03-27T11:29:32.262Z,45.51
2018-03-27T11:30:32.233Z,45.58
2018-03-27T11:31:32.207Z,45.01
2018-03-27T11:32:32.177Z,44.72
2018-03-27T11:33:32.159Z,45.48
2018-03-27T11:34:32.136Z,45.94
2018-03-27T11:35:32.115Z,45.67
2018-03-27T11:36:32.092Z,45.77
2018-03-27T11:37:32.064Z,45.77
2018-03-27T11:38:32.031Z,45.65
2018-03-27T11:39:32.011Z,46.22
2018-03-27T11:40:31.987Z,45.75
2018-03-27T11:41:31.967Z,46.42
2018-03-27T11:42:31.936Z,47.37
2018-03-27T11:43:31.909Z,47.75
2018-03-27T11:44:31.882Z,48.49
2018-03-27T11:45:31.851Z,48.97
2018-03-27T11:46:31.826Z,48.90
2018-03-27T11:47:31.801Z,48.97
2018-03-27T11:48:31.787Z,48.71
2018-03-27T11:49:31.792Z,49.18
2018-03-27T11:50:31.725Z,49.09
2018-03-27T11:51:31.711Z,49.09
2018-03-27T11:52:31.695Z,49.09
2018-03-27T11:53:31.656Z,48.83
2018-03-27T11:54:31.662Z,48.25
2018-03-27T11:55:31.631Z,48.83
2018-03-27T11:56:33.558Z,48.35
2018-03-27T11:57:31.551Z,48.54
2018-03-27T11:58:31.525Z,48.35
2018-03-27T11:59:31.502Z,48.73
2018-03-27T12:00:31.470Z,49.11
2018-03-27T12:01:31.511Z,48.73
2018-03-27T12:02:31.422Z,49.40
2018-03-27T12:03:31.395Z,49.40
2018-03-27T12:04:31.364Z,49.30
2018-03-27T12:05:31.351Z,49.95
2018-03-27T12:06:31.328Z,50.33
2018-03-27T12:07:31.360Z,50.33
2018-03-27T12:08:31.270Z,51.09
2018-03-27T12:09:31.259Z,51.38
2018-03-27T12:10:31.228Z,51.57
2018-03-27T12:11:31.200Z,50.62
2018-03-27T12:12:31.170Z,51.76
2018-03-27T12:13:31.144Z,51.31
2018-03-27T12:14:31.113Z,50.93
2018-03-27T12:15:31.085Z,50.64
2018-03-27T12:16:31.062Z,50.64
2018-03-27T12:17:31.035Z,49.98
2018-03-27T12:18:31.012Z,49.80
2018-03-27T12:19:30.982Z,49.33
2018-03-27T12:20:30.966Z,48.75
2018-03-27T12:21:30.931Z,48.78
2018-03-27T12:22:30.911Z,48.11
2018-03-27T12:23:30.886Z,47.56
2018-03-27T12:24:30.860Z,47.16
2018-03-27T12:25:30.846Z,46.98
2018-03-27T12:26:30.863Z,46.41
2018-03-27T12:27:30.788Z,46.62
2018-03-27T12:28:30.776Z,46.46
2018-03-27T12:29:30.751Z,46.22
2018-03-27T12:30:30.714Z,46.96
2018-03-27T12:31:30.696Z,48.66
2018-03-27T12:32:30.692Z,49.14
2018-03-27T12:33:30.642Z,49.33
2018-03-27T12:34:30.613Z,49.33
2018-03-27T12:35:30.597Z,49.26
2018-03-27T12:36:30.573Z,48.80
2018-03-27T12:37:30.553Z,48.04
2018-03-27T12:38:30.534Z,47.75
2018-03-27T12:39:30.503Z,47.37
2018-03-27T12:40:30.483Z,47.73
2018-03-27T12:41:30.449Z,47.92
2018-03-27T12:42:30.428Z,48.78
2018-03-27T12:43:30.530Z,49.07
2018-03-27T12:44:30.373Z,49.26
2018-03-27T12:45:30.355Z,49.26
2018-03-27T12:46:30.337Z,49.74
2018-03-27T12:47:30.304Z,49.71
2018-03-27T12:48:30.286Z,50.00
2018-03-27T12:49:30.261Z,50.67
2018-03-27T12:50:30.238Z,50.86
2018-03-27T12:51:30.218Z,51.43
2018-03-27T12:52:30.193Z,50.64
2018-03-27T12:53:30.341Z,51.50
2018-03-27T12:54:30.592Z,51.31
2018-03-27T12:55:30.114Z,52.36
2018-03-27T12:56:30.151Z,51.89
2018-03-27T12:57:30.195Z,52.75
2018-03-27T12:58:30.071Z,52.26
2018-03-27T12:59:30.276Z,53.22
2018-03-27T13:00:30.067Z,53.22
2018-03-27T13:01:32.594Z,53.32
2018-03-27T13:02:29.952Z,53.41
2018-03-27T13:03:29.932Z,52.65
2018-03-27T13:04:29.897Z,52.94
2018-03-27T13:05:29.978Z,53.13
2018-03-27T13:06:29.854Z,53.00
2018-03-27T13:07:29.843Z,53.96
2018-03-27T13:08:29.932Z,54.25
2018-03-27T13:09:29.795Z,54.91
2018-03-27T13:10:29.756Z,54.82
2018-03-27T13:11:29.712Z,55.58